• Join FlightAware (Why Join?)
  • Login
  • US Flag 
07:40AM EDT


 

Airport Tracker/Info


-or-


 

Live Flight TrackerFlight Track Log ✈ USC1098 ✈ 07-May-2013 ✈ KSTP - KLCK

Flight Track Log - Related Links

Times and Time Zones

All times are in EDT time to prevent confusion due to time zone crossing. See the USC1098 flight status page for this flight to view local times or setup timezone preferences in your user account.

Time Position Orientation Groundspeed Altitude Reporting Facility
EDT Latitude Longitude Course Direction KTS MPH feet Rate Location/Type
05:44PM 44.9333 -92.9667 153° Southeast 133 153 2,100  Level Minneapolis TRACON
05:46PM 44.9167 -92.9167 115° Southeast 133 153 2,600 420 Climbing Minneapolis TRACON
05:47PM 44.8942 -92.8725 126° Southeast 135 155 3,000 240 Climbing Minneapolis Center
05:48PM 44.8728 -92.8236 122° Southeast 145 167 3,100  Climbing Minneapolis Center
05:49PM 44.8497 -92.7692 121° Southeast 160 184 3,100 300 Level Minneapolis Center
05:50PM 44.7089 -92.9016 153° Southeast  Level FlightAware Approximate
05:50PM 44.8303 -92.7208 120° Southeast 143 165 3,800  Level Minneapolis Center
05:51PM 44.8131 -92.6756 118° Southeast 132 152 4,300 480 Climbing Minneapolis Center
05:52PM 44.7878 -92.6264 126° Southeast 131 151 4,800 480 Climbing Minneapolis Center
05:53PM 44.7636 -92.5908 134° Southeast 125 144 5,300 480 Climbing Minneapolis Center
05:54PM 44.7367 -92.5606 141° Southeast 126 145 5,900 480 Climbing Minneapolis Center
05:55PM 44.7106 -92.5300 140° Southeast 124 143 6,400 480 Climbing Minneapolis Center
05:56PM 44.6833 -92.5003 142° Southeast 125 144 6,900 480 Climbing Minneapolis Center
05:57PM 44.6575 -92.4697 140° Southeast 121 139 7,500 540 Climbing Minneapolis Center
05:58PM 44.6250 -92.4464 153° Southeast 111 128 8,100 480 Climbing Minneapolis Center
05:59PM 44.5964 -92.4214 148° Southeast 120 138 8,500 360 Climbing Minneapolis Center
06:00PM 44.5669 -92.3944 147° Southeast 123 142 8,900 240 Climbing Minneapolis Center
06:01PM 44.5367 -92.3672 147° Southeast 134 154 9,000  Climbing Minneapolis Center
06:02PM 44.5083 -92.3206 130° Southeast 146 168 8,900 -60 Descending Minneapolis Center
06:03PM 44.4878 -92.2689 119° Southeast 152 175 8,900  Level Minneapolis Center
06:04PM 44.4642 -92.2139 121° Southeast 153 176 8,900 -60 Level Minneapolis Center
06:05PM 44.4392 -92.1667 127° Southeast 152 175 8,800  Descending Minneapolis Center
06:06PM 44.4081 -92.1228 135° Southeast 147 169 8,900  Climbing Minneapolis Center
06:08PM 44.3419 -92.0439 140° Southeast 152 175 8,900  Level Minneapolis Center
06:09PM 44.3044 -92.0092 146° Southeast 151 174 8,900  Level Minneapolis Center
06:10PM 44.2719 -91.9711 140° Southeast 153 176 8,900  Level Minneapolis Center
06:11PM 44.2433 -91.9444 146° Southeast 152 175 8,900  Level Minneapolis Center
06:12PM 44.2047 -91.8939 137° Southeast 153 176 8,900  Level Minneapolis Center
06:13PM 44.1728 -91.8475 134° Southeast 155 178 8,900 -60 Level Minneapolis Center
06:15PM 44.1442 -91.8058 134° Southeast 151 174 8,800  Descending Minneapolis Center
06:16PM 44.1153 -91.7564 129° Southeast 154 177 8,900  Climbing Minneapolis Center
06:17PM 44.0869 -91.7081 129° Southeast 161 185 8,900  Level Minneapolis Center
06:18PM 44.0547 -91.6608 134° Southeast 163 188 8,900  Level Minneapolis Center
06:19PM 44.0225 -91.6158 135° Southeast 155 178 8,900  Level Minneapolis Center
06:20PM 43.9889 -91.5722 137° Southeast 160 184 8,900  Level Minneapolis Center
06:21PM 43.9581 -91.5294 135° Southeast 155 178 8,900  Level Minneapolis Center
06:22PM 43.9264 -91.4853 135° Southeast 155 178 8,900  Level Minneapolis Center
06:23PM 43.8956 -91.4386 133° Southeast 159 183 8,900  Level Minneapolis Center
06:24PM 43.8778 -91.3886 116° Southeast 152 175 8,900  Level Minneapolis Center
06:25PM 43.8522 -91.3358 124° Southeast 158 182 8,900  Level Minneapolis Center
06:26PM 43.8253 -91.2856 127° Southeast 157 181 8,900  Level Minneapolis Center
06:27PM 43.7992 -91.2344 125° Southeast 157 181 8,900  Level Minneapolis Center
06:28PM 43.7744 -91.1836 124° Southeast 153 176 8,900 -60 Level Minneapolis Center
06:29PM 43.7522 -91.1328 121° Southeast 150 173 8,800  Descending Minneapolis Center
06:30PM 43.7267 -91.0847 126° Southeast 147 169 8,900  Climbing Minneapolis Center
06:31PM 43.6997 -91.0367 128° Southeast 152 175 8,800  Descending Minneapolis Center
06:32PM 43.6761 -90.9711 116° Southeast 159 183 8,900  Climbing Minneapolis Center
06:33PM 43.6522 -90.9167 121° Southeast 159 183 8,900  Level Minneapolis Center
06:34PM 43.6239 -90.8697 130° Southeast 153 176 8,900 -60 Level Minneapolis Center
06:35PM 43.5911 -90.8256 136° Southeast 158 182 8,800  Descending Minneapolis Center
06:36PM 43.5617 -90.7825 133° Southeast 162 186 9,000  Climbing Minneapolis Center
06:37PM 43.5431 -90.7231 113° Southeast 162 186 8,900 -60 Descending Minneapolis Center
06:39PM 43.5206 -90.6694 120° Southeast 157 181 8,900  Level Minneapolis Center
06:40PM 43.5000 -90.6119 116° Southeast 161 185 8,900  Level Minneapolis Center
06:41PM 43.4803 -90.5553 116° Southeast 158 182 8,900  Level Minneapolis Center
06:42PM 43.4617 -90.4969 114° Southeast 159 183 8,900 -60 Level Minneapolis Center
06:43PM 43.4383 -90.4403 120° Southeast 163 188 8,800 -60 Descending Minneapolis Center
06:44PM 43.4122 -90.3911 126° Southeast 154 177 8,800 60 Level Minneapolis Center
06:45PM 43.3883 -90.3425 124° Southeast 158 182 9,000  Climbing Minneapolis Center
06:46PM 43.3681 -90.3042 126° Southeast 156 180 8,900  Descending Chicago Center
06:47PM 43.3444 -90.2497 121° Southeast 157 181 9,000  Climbing Chicago Center
06:48PM 43.3236 -90.1953 118° Southeast 160 184 9,000  Level Chicago Center
06:49PM 43.3008 -90.1469 123° Southeast 155 178 9,100  Climbing Chicago Center
06:50PM 43.2700 -90.0922 128° Southeast 154 177 9,000 -60 Descending Chicago Center
06:51PM 43.2275 -90.0714 160° South 160 184 9,000  Level Chicago Center
06:52PM 43.1917 -90.0400 147° Southeast 159 183 9,000  Level Chicago Center
06:53PM 43.1597 -89.9989 137° Southeast 159 183 9,000  Level Chicago Center
06:54PM 43.1253 -89.9697 148° Southeast 159 183 9,000  Level Chicago Center
06:55PM 43.0789 -89.9361 152° Southeast 158 182 9,000 -60 Level Chicago Center
06:56PM 43.0386 -89.9047 150° Southeast 158 182 8,900  Descending Chicago Center
06:57PM 42.9983 -89.8781 154° Southeast 159 183 9,000  Climbing Chicago Center
06:58PM 42.9603 -89.8483 150° Southeast 159 183 8,900  Descending Chicago Center
06:59PM 42.9208 -89.8194 152° Southeast 159 183 9,000  Climbing Chicago Center
07:00PM 42.8836 -89.7875 148° Southeast 159 183 9,000  Level Chicago Center
07:01PM 42.8428 -89.7414 140° Southeast 161 185 9,000  Level Chicago Center
07:02PM 42.8078 -89.7025 141° Southeast 162 186 9,000  Level Chicago Center
07:03PM 42.7750 -89.6600 136° Southeast 162 186 9,000  Level Chicago Center
07:04PM 42.7408 -89.6217 141° Southeast 159 183 9,000  Level Chicago Center
07:05PM 42.7047 -89.5875 145° Southeast 158 182 9,000  Level Chicago Center
07:06PM 42.6594 -89.5531 151° Southeast 159 183 9,100  Climbing Chicago Center
07:07PM 42.6183 -89.5258 154° Southeast 164 189 9,000 -60 Descending Chicago Center
07:08PM 42.5758 -89.5083 163° South 161 185 9,000  Level Chicago Center
07:09PM 42.5339 -89.4872 160° South 161 185 9,000  Level Chicago Center
07:10PM 42.4928 -89.4653 159° South 159 183 9,000  Level Chicago Center
07:11PM 42.4458 -89.4350 155° Southeast 160 184 9,000  Level Chicago Center
07:12PM 42.4081 -89.4042 149° Southeast 159 183 9,100  Climbing Chicago Center
07:13PM 42.3700 -89.3703 147° Southeast 162 186 9,100 -60 Level Chicago Center
07:15PM 42.3317 -89.3397 149° Southeast 161 185 9,000 -60 Descending Chicago Center
07:16PM 42.2928 -89.3150 155° Southeast 155 178 9,000  Level Chicago Center
07:17PM 42.2481 -89.2828 152° Southeast 156 180 9,000  Level Chicago Center
07:18PM 42.2106 -89.2525 149° Southeast 155 178 9,000  Level Chicago Center
07:19PM 42.1717 -89.2244 152° Southeast 157 181 9,000  Level Chicago Center
07:20PM 42.1342 -89.1978 152° Southeast 156 180 9,100  Climbing Chicago Center
07:21PM 42.0961 -89.1639 147° Southeast 162 186 9,000 -60 Descending Chicago Center
07:22PM 42.0525 -89.1506 167° South 163 188 9,000  Level Chicago Center
07:23PM 42.0019 -89.1456 176° South 155 178 9,000  Level Chicago Center
07:24PM 41.9597 -89.1344 169° South 155 178 9,000  Level Chicago Center
07:25PM 41.9178 -89.1219 167° South 156 180 9,100 -60 Climbing Chicago Center
07:26PM 41.8742 -89.1153 174° South 159 183 8,900  Descending Chicago Center
07:27PM 41.8319 -89.1056 170° South 156 180 9,100  Climbing Chicago Center
07:28PM 41.7814 -89.0969 173° South 153 176 9,000 -60 Descending Chicago Center
07:29PM 41.7392 -89.0881 171° South 155 178 9,000 -60 Level Chicago Center
07:30PM 41.6944 -89.0725 165° South 164 189 8,900  Descending Chicago Center
07:31PM 41.6508 -89.0586 167° South 162 186 9,000  Climbing Chicago Center
07:32PM 41.6067 -89.0475 169° South 163 188 8,900  Descending Chicago Center
07:33PM 41.5544 -89.0408 175° South 159 183 9,000  Climbing Chicago Center
07:34PM 41.5156 -89.0194 158° South 162 186 9,000  Level Chicago Center
07:35PM 41.4794 -88.9814 142° Southeast 166 191 9,000  Level Chicago Center
07:36PM 41.4403 -88.9544 153° Southeast 160 184 9,000  Level Chicago Center
07:37PM 41.4008 -88.9211 148° Southeast 165 190 9,000  Level Chicago Center
07:38PM 41.3550 -88.8858 150° Southeast 163 188 9,000  Level Chicago Center
07:39PM 41.3156 -88.8569 151° Southeast 161 185 9,000  Level Chicago Center
07:40PM 41.2928 -88.8097 123° Southeast 168 193 9,100  Climbing Chicago Center
07:41PM 41.2928 -88.7511 90° East 160 184 9,000 -60 Descending Chicago Center
07:42PM 41.2914 -88.6919 92° East 162 186 9,000  Level Chicago Center
07:44PM 41.2889 -88.6194 93° East 164 189 9,000  Level Chicago Center
07:45PM 41.2875 -88.5597 92° East 163 188 9,000  Level Chicago Center
07:46PM 41.2872 -88.5008 90° East 162 186 9,000  Level Chicago Center
07:47PM 41.2861 -88.4422 91° East 160 184 9,000 -60 Level Chicago Center
07:48PM 41.2706 -88.3775 108° East 158 182 8,900  Descending Chicago Center
07:49PM 41.2519 -88.3258 116° Southeast 157 181 9,000  Climbing Chicago Center
07:50PM 41.2378 -88.2722 109° East 155 178 9,000  Level Chicago Center
07:51PM 41.2186 -88.2169 115° Southeast 163 188 9,000  Level Chicago Center
07:52PM 41.1978 -88.1653 118° Southeast 162 186 9,000  Level Chicago Center
07:53PM 41.1733 -88.1008 117° Southeast 164 189 9,000  Level Chicago Center
07:54PM 41.1528 -88.0483 117° Southeast 163 188 9,000  Level Chicago Center
07:55PM 41.1375 -87.9942 111° Southeast 160 184 9,000  Level Chicago Center
07:56PM 41.1311 -87.9364 98° East 160 184 9,000  Level Chicago Center
07:57PM 41.1242 -87.8678 98° East 159 183 9,000  Level Chicago Center
07:58PM 41.1172 -87.8106 99° East 158 182 9,000  Level Chicago Center
07:59PM 41.1097 -87.7519 100° East 161 185 9,000  Level Chicago Center
08:00PM 41.1031 -87.6953 99° East 157 181 9,000  Level Chicago Center
08:01PM 41.0958 -87.6381 99° East 158 182 9,000  Level Chicago Center
08:02PM 41.0900 -87.5686 96° East 159 183 9,000  Level Chicago Center
08:03PM 41.0867 -87.5100 94° East 159 183 9,100  Climbing Chicago Center
08:04PM 41.0836 -87.4525 94° East 159 183 9,100 -60 Level Chicago Center
08:05PM 41.0769 -87.3956 99° East 157 181 9,000 -60 Descending Chicago Center
08:06PM 41.0725 -87.3389 96° East 156 180 9,000  Level Chicago Center
08:07PM 41.0664 -87.2944 100° East 155 178 9,000  Level Chicago Center
08:07PM 41.0656 -87.2700 93° East 158 182 9,000 -120 Level Chicago Center
08:08PM 41.0625 -87.2392 97° East 160 184 8,900  Descending Chicago Center
08:08PM 41.0597 -87.2125 98° East 158 182 9,000 60 Climbing Chicago Center
08:09PM 41.0544 -87.1806 102° East 156 180 9,000  Level Chicago Center
08:09PM 41.0542 -87.1569 91° East 154 177 9,000 -120 Level Chicago Center
08:10PM 41.0506 -87.1225 98° East 158 182 8,900  Descending Chicago Center
08:10PM 41.0486 -87.0997 96° East 156 180 9,000  Climbing Chicago Center
08:11PM 41.0444 -87.0642 99° East 157 181 8,900  Descending Chicago Center
08:11PM 41.0422 -87.0436 98° East 156 180 9,000  Climbing Chicago Center
08:12PM 41.0383 -87.0086 98° East 157 181 8,900  Descending Chicago Center
08:12PM 41.0386 -86.9856 89° East 158 182 9,000  Climbing Chicago Center
08:13PM 41.0344 -86.9503 99° East 157 181 8,900  Descending Chicago Center
08:13PM 41.0319 -86.9169 96° East 158 182 9,000  Climbing Chicago Center
08:14PM 41.0303 -86.8950 96° East 156 180 8,900  Descending Chicago Center
08:15PM 41.0289 -86.8608 93° East 154 177 9,000  Climbing Chicago Center
08:15PM 41.0242 -86.8339 103° East 157 181 8,900 60 Descending Chicago Center
08:16PM 41.0228 -86.8044 94° East 155 178 9,100  Climbing Chicago Center
08:16PM 41.0181 -86.7758 102° East 153 176 8,900  Descending Chicago Center
08:17PM 41.0158 -86.7489 96° East 155 178 9,100  Climbing Chicago Center
08:17PM 41.0136 -86.7231 96° East 152 175 8,900  Descending Chicago Center
08:18PM 41.0119 -86.6878 94° East 154 177 9,100  Climbing Chicago Center
08:18PM 41.0097 -86.6650 97° East 152 175 8,900 -120 Descending Chicago Center
08:19PM 41.0092 -86.6322 91° East 153 176 9,000  Climbing Chicago Center
08:19PM 41.0053 -86.6097 103° East 153 176 8,900 60 Descending Chicago Center
08:20PM 41.0036 -86.5764 94° East 154 177 9,100  Climbing Chicago Center
08:20PM 41.0011 -86.5542 98° East 152 175 8,900  Descending Chicago Center
08:21PM 40.9978 -86.5208 98° East 154 177 9,100 60 Climbing Chicago Center
08:21PM 40.9947 -86.4989 100° East 151 174 9,000 -120 Descending Chicago Center
08:22PM 40.9947 -86.4539 90° East 154 177 9,000 -120 Level Chicago Center
08:22PM 40.9925 -86.4408 103° East 154 177 8,900  Descending Chicago Center
08:23PM 40.9911 -86.3972 92° East 157 181 9,000  Climbing Chicago Center
08:24PM 40.9886 -86.3425 93° East 153 176 9,000  Level Chicago Center
08:25PM 40.9850 -86.2858 95° East 155 178 9,000  Level Chicago Center
08:26PM 40.9764 -86.2303 102° East 157 181 9,000  Level Chicago Center
08:27PM 40.9667 -86.1742 103° East 158 182 9,000 -60 Level Chicago Center
08:28PM 40.9503 -86.1117 109° East 154 177 8,900 -60 Descending Chicago Center
08:29PM 40.9336 -86.0583 112° Southeast 157 181 8,900  Level Chicago Center
08:30PM 40.9172 -86.0072 113° Southeast 153 176 8,900  Level Chicago Center
08:31PM 40.9006 -85.9567 114° Southeast 152 175 8,900  Level Chicago Center
08:32PM 40.8842 -85.9061 113° Southeast 152 175 8,900  Level Chicago Center
08:33PM 40.8567 -85.8453 121° Southeast 159 183 8,900 -60 Level Chicago Center
08:34PM 40.8344 -85.7978 122° Southeast 156 180 8,800  Descending Chicago Center
08:35PM 40.8150 -85.7483 117° Southeast 154 177 8,900  Climbing Chicago Center
08:36PM 40.7950 -85.6983 118° Southeast 154 177 8,900  Level Chicago Center
08:37PM 40.7758 -85.6464 116° Southeast 157 181 8,900  Level Chicago Center
08:38PM 40.7589 -85.5958 114° Southeast 153 176 8,900  Level Chicago Center
08:39PM 40.7375 -85.5319 114° Southeast 157 181 8,900  Level Chicago Center
08:40PM 40.7203 -85.4792 113° Southeast 158 182 8,900  Level Chicago Center
08:41PM 40.7019 -85.4289 116° Southeast 155 178 8,900  Level Chicago Center
08:42PM 40.6914 -85.3775 105° East 150 173 8,900  Level Chicago Center
08:43PM 40.6772 -85.3258 110° East 149 171 8,900  Level Chicago Center
08:45PM 40.6639 -85.2744 109° East 150 173 8,900  Level Chicago Center
08:46PM 40.6575 -85.2194 99° East 146 168 8,900  Level Chicago Center
08:47PM 40.6514 -85.1547 97° East 148 170 8,900  Level Chicago Center
08:48PM 40.6422 -85.1042 103° East 145 167 8,900  Level Chicago Center
08:49PM 40.6286 -85.0519 109° East 149 171 8,900  Level Chicago Center
08:50PM 40.6153 -85.0017 109° East 147 169 8,900  Level Chicago Center
08:51PM 40.6003 -84.9508 111° Southeast 149 171 8,900  Level Chicago Center
08:52PM 40.5781 -84.8958 118° Southeast 151 174 8,900  Level Indianapolis Center
08:53PM 40.5578 -84.8472 119° Southeast 152 175 8,900  Level Indianapolis Center
08:54PM 40.5442 -84.7942 109° East 151 174 8,900  Level Indianapolis Center
08:55PM 40.5281 -84.7336 109° East 149 171 8,900  Level Indianapolis Center
08:56PM 40.5100 -84.6833 115° Southeast 151 174 8,900  Level Indianapolis Center
08:57PM 40.4908 -84.6331 117° Southeast 153 176 9,000  Climbing Indianapolis Center
08:57PM 40.4831 -84.6111 115° Southeast 151 174 8,900  Descending Indianapolis Center
08:58PM 40.4744 -84.5825 112° Southeast 150 173 9,000  Climbing Indianapolis Center
08:58PM 40.4661 -84.5622 118° Southeast 150 173 8,900 -120 Descending Indianapolis Center
08:59PM 40.4558 -84.5322 114° Southeast 151 174 8,900  Level Indianapolis Center
08:59PM 40.4469 -84.5156 125° Southeast 150 173 8,900  Level Indianapolis Center
09:00PM 40.4311 -84.4869 126° Southeast 151 174 8,900  Level Indianapolis Center
09:00PM 40.4172 -84.4675 133° Southeast 153 176 8,900  Level Indianapolis Center
09:01PM 40.4119 -84.4408 105° East 147 169 8,900 60 Level Indianapolis Center
09:01PM 40.4044 -84.4192 114° Southeast 143 165 9,000 180 Climbing Indianapolis Center
09:02PM 40.3967 -84.3914 110° East 144 166 9,100 -120 Climbing Indianapolis Center
09:03PM 40.3897 -84.3653 109° East 146 168 8,900 -120 Descending Indianapolis Center
09:03PM 40.3847 -84.3392 104° East 147 169 9,000 60 Climbing Indianapolis Center
09:04PM 40.3772 -84.3142 111° Southeast 147 169 9,000  Level Indianapolis Center
09:04PM 40.3700 -84.2897 111° Southeast 146 168 9,000 -120 Level Indianapolis Center
09:05PM 40.3622 -84.2656 113° Southeast 147 169 8,900  Descending Indianapolis Center
09:05PM 40.3556 -84.2378 107° East 149 171 9,000  Climbing Indianapolis Center
09:06PM 40.3475 -84.2114 112° Southeast 146 168 8,900 60 Descending Indianapolis Center
09:06PM 40.3417 -84.1869 107° East 147 169 9,100  Climbing Indianapolis Center
09:07PM 40.3325 -84.1603 114° Southeast 150 173 8,900 -120 Descending Indianapolis Center
09:07PM 40.3272 -84.1350 105° East 150 173 9,000 -300 Climbing Indianapolis Center
09:08PM 40.3181 -84.1061 113° Southeast 153 176 8,600 -720 Descending Indianapolis Center
09:08PM 40.3083 -84.0817 118° Southeast 157 181 8,300 -720 Descending Indianapolis Center
09:09PM 40.2928 -84.0536 126° Southeast 175 201 7,900 -720 Descending Indianapolis Center
09:09PM 40.2808 -84.0178 114° Southeast 168 193 7,600 -720 Descending Indianapolis Center
09:10PM 40.2717 -84.0017 127° Southeast 165 190 7,200 -720 Descending Indianapolis Center
09:10PM 40.2581 -83.9639 115° Southeast 167 192 6,900 -540 Descending Indianapolis Center
09:11PM 40.2469 -83.9411 123° Southeast 164 189 6,600 -600 Descending Indianapolis Center
09:11PM 40.2358 -83.9122 117° Southeast 165 190 6,300 -660 Descending Indianapolis Center
09:12PM 40.2272 -83.8975 127° Southeast 162 186 6,000 -540 Descending Indianapolis Center
09:12PM 40.2131 -83.8600 116° Southeast 163 188 5,800 -600 Descending Indianapolis Center
09:13PM 40.2058 -83.8456 123° Southeast 162 186 5,400 -600 Descending Indianapolis Center
09:13PM 40.1925 -83.8078 115° Southeast 162 186 5,200 -540 Descending Indianapolis Center
09:14PM 40.1831 -83.7881 122° Southeast 162 186 4,900 -240 Descending Indianapolis Center
09:14PM 40.1725 -83.7564 114° Southeast 160 184 5,000 60 Climbing Indianapolis Center
09:15PM 40.1636 -83.7392 124° Southeast 153 176 5,000  Level Indianapolis Center
09:15PM 40.1533 -83.7083 114° Southeast 154 177 5,000 -120 Level Indianapolis Center
09:16PM 40.1461 -83.6906 118° Southeast 145 167 4,900 60 Descending Indianapolis Center
09:16PM 40.1344 -83.6611 117° Southeast 148 170 5,100  Climbing Indianapolis Center
09:17PM 40.1247 -83.6414 123° Southeast 143 165 4,900  Descending Indianapolis Center
09:17PM 40.1158 -83.6158 114° Southeast 144 166 5,100 60 Climbing Indianapolis Center
09:18PM 40.1072 -83.5956 119° Southeast 142 163 5,000 -420 Descending Indianapolis Center
09:18PM 40.0958 -83.5694 120° Southeast 143 165 4,700 -720 Descending Indianapolis Center
09:19PM 40.0856 -83.5467 121° Southeast 152 175 4,300 -540 Descending Indianapolis Center
09:19PM 40.0733 -83.5194 120° Southeast 150 173 4,200 -420 Descending Indianapolis Center
09:20PM 40.0619 -83.4972 124° Southeast 158 182 3,900 -600 Descending Indianapolis Center
09:20PM 40.0517 -83.4694 116° Southeast 155 178 3,600 -540 Descending Indianapolis Center
09:21PM 40.0403 -83.4483 125° Southeast 158 182 3,400 -540 Descending Indianapolis Center
09:21PM 40.0286 -83.4192 118° Southeast 157 181 3,100 -540 Descending Indianapolis Center
09:22PM 40.0189 -83.3967 119° Southeast 161 185 2,900 -240 Descending Indianapolis Center
09:22PM 40.0067 -83.3681 119° Southeast 159 183 2,900  Level Indianapolis Center
09:23PM 39.9972 -83.3478 121° Southeast 151 174 2,900 60 Level Indianapolis Center
09:24PM 39.9842 -83.3231 125° Southeast 152 175 3,000  Climbing Indianapolis Center
09:25PM 39.9619 -83.2803 124° Southeast 145 167 3,000  Level Indianapolis Center
09:26PM 39.9400 -83.2347 122° Southeast 144 166 3,000  Level Indianapolis Center
09:27PM 39.9111 -83.1744 122° Southeast 144 166 3,000  Level Indianapolis Center
09:28PM 39.8981 -83.1447 120° Southeast 143 165 3,000 -60 Level Indianapolis Center
09:29PM 39.8683 -83.0986 130° Southeast 151 174 2,900  Descending Indianapolis Center
09:30PM 39.8331 -83.0925 172° South 157 181 3,000  Climbing Indianapolis Center
09:31PM 39.7806 -83.0986 185° South 160 184 3,000 -180 Level Indianapolis Center
09:32PM 39.7597 -83.0478 118° Southeast 157 181 2,700 -540 Descending Indianapolis Center
09:33PM 39.7653 -82.9975 82° East 148 170 1,900 -780 Descending Indianapolis Center
09:34PM 39.7886 -82.9608 50° Northeast 137 158 1,200 -540 Descending Indianapolis Center
09:35PM 39.8125 -82.9297 45° Northeast 130 150 900 -300 Descending Indianapolis Center